Strona główna
METAR-TAF:

METAR-TAF

Lotnisko :

Platforma wiertnicza

Euro, Holandia

Szerokość geograficzna: 51-59-52N, Długość geograficzna: 3-16-30E, wysokość: 18 m

Aktualna obserwacja pogody

Raport powstał 30 minut temu, godzina 03:55 UTC
Wiatr 22 kt od zachód
Temperatura 9°C
Wilgotność 66%
Ciśnienie 1007 hPa
Widzialność 10 km lub więcej

METAR: EHSA 110355Z AUTO 27022KT 9999 ///////// 09/03 Q1007 W08/H20

czas: 05:25 (04:25 UTC)


TAF: brakujący

Obserwacja i prognoza pogody dla ponad 4000 lotnisk (raport METAR i TAF).

Dostępne stacje oznaczono żółtymi i czerwonymi punktami na mapie.

Najedź kursorem aby zobaczyć nazwę stacji.

Kliknij aby zobaczyć obserwacje i prognozy pogody.

Aby zmienić mapę: kliknij na zielony przycisk z czarnym krzyżykiem, aby powiększyć; na zielony przycisk z myślnikiem, aby pomniejszyć; na zielone strzałki, aby przejść do map sąsiednich.


METAR-TAF: